Quakertown, New Jersey
Current Conditions -  °F | °C
As of 4:53 AM on Saturday 20 Dec 2014 (Local Time) from KSMQ Reporting Station
Overcast Overcast  
Wind Chill: 26°   Ceiling: 2800
Heat Index: 31°   Visibility: 10mi
Dew Point: 20°   Wind: 5mph
Humidity: 64%   Direction: 330°NNW
Pressure: 30.23"   Gusts: NA
Location:  40.57°N, 74.94°W
Report Text: KSMQ 200953Z AUTO 33004KT 10SM OVC028 M01/M07 A3023 RMK AO2 SLP241 T10061067
Loading
Personal Weather Stations






























Interactive Weather Map New forecast layout! Learn more

10-Day Weather Forecast

Advertisements
Track Severe Weather on mobile